createdAt,value
2023-01-30T00:00:38.706Z,1004.17
2023-01-30T00:01:38.680Z,1004.1
2023-01-30T00:02:38.679Z,1004.02
2023-01-30T00:03:38.667Z,1003.87
2023-01-30T00:04:38.657Z,1003.89
2023-01-30T00:05:38.634Z,1003.78
2023-01-30T00:06:38.630Z,1003.77
2023-01-30T00:07:38.616Z,1003.76
2023-01-30T00:08:38.606Z,1003.66
2023-01-30T00:09:38.598Z,1003.6
2023-01-30T00:10:38.592Z,1003.86
2023-01-30T00:11:38.579Z,1003.81
2023-01-30T00:12:38.558Z,1003.82
2023-01-30T00:13:38.551Z,1003.84
2023-01-30T00:14:38.544Z,1003.88
2023-01-30T00:15:38.539Z,1004
2023-01-30T00:16:38.517Z,1004.05
2023-01-30T00:17:38.512Z,1004.1
2023-01-30T00:18:38.504Z,1004.04
2023-01-30T00:19:38.487Z,1004.08
2023-01-30T00:20:38.480Z,1004.08
2023-01-30T00:21:38.474Z,1004.11
2023-01-30T00:22:38.459Z,1004.07
2023-01-30T00:23:38.450Z,1004.16
2023-01-30T00:24:38.446Z,1004.06
2023-01-30T00:25:38.442Z,1004.19
2023-01-30T00:26:38.414Z,1004.07
2023-01-30T00:27:38.401Z,1004
2023-01-30T00:28:38.396Z,1003.99
2023-01-30T00:29:38.390Z,1004.07
2023-01-30T00:30:38.370Z,1003.85
2023-01-30T00:31:38.366Z,1003.87
2023-01-30T00:32:38.349Z,1003.92
2023-01-30T00:33:38.364Z,1003.86
2023-01-30T00:34:38.331Z,1003.67
2023-01-30T00:35:38.333Z,1003.65
2023-01-30T00:36:38.311Z,1003.6
2023-01-30T00:37:38.298Z,1003.5
2023-01-30T00:38:38.291Z,1003.56
2023-01-30T00:39:38.280Z,1003.56
2023-01-30T00:40:38.263Z,1003.53
2023-01-30T00:41:38.253Z,1003.53
2023-01-30T00:42:38.242Z,1003.56
2023-01-30T00:43:38.242Z,1003.49
2023-01-30T00:44:38.225Z,1003.49
2023-01-30T00:45:38.212Z,1003.5
2023-01-30T00:46:38.204Z,1003.55
2023-01-30T00:47:38.198Z,1003.53
2023-01-30T00:48:38.180Z,1003.55
2023-01-30T00:49:38.174Z,1003.52
2023-01-30T00:50:38.159Z,1003.47
2023-01-30T00:51:38.153Z,1003.31
2023-01-30T00:52:38.142Z,1003.42
2023-01-30T00:53:38.128Z,1003.38
2023-01-30T00:54:38.116Z,1003.39
2023-01-30T00:55:38.119Z,1003.45
2023-01-30T00:56:38.094Z,1003.39
2023-01-30T00:57:38.095Z,1003.25
2023-01-30T00:58:38.078Z,1003.22
2023-01-30T00:59:38.067Z,1003.28
2023-01-30T01:00:38.058Z,1003.29
2023-01-30T01:01:38.049Z,1003.23
2023-01-30T01:02:38.033Z,1003.3
2023-01-30T01:03:38.033Z,1003.17
2023-01-30T01:04:38.013Z,1003.13
2023-01-30T01:05:38.001Z,1003.19
2023-01-30T01:06:38.005Z,1003.15
2023-01-30T01:07:37.990Z,1003.11
2023-01-30T01:08:38.010Z,1003.07
2023-01-30T01:09:37.983Z,1003.06
2023-01-30T01:10:37.959Z,1003.05
2023-01-30T01:11:37.997Z,1003.16
2023-01-30T01:12:37.939Z,1003.12
2023-01-30T01:13:37.919Z,1003.12
2023-01-30T01:14:37.938Z,1003.04
2023-01-30T01:15:37.915Z,1003.06
2023-01-30T01:16:37.886Z,1002.97
2023-01-30T01:17:37.877Z,1003.06
2023-01-30T01:18:37.876Z,1002.97
2023-01-30T01:19:37.855Z,1002.9
2023-01-30T01:20:37.851Z,1002.97
2023-01-30T01:21:37.839Z,1002.93
2023-01-30T01:22:37.834Z,1002.87
2023-01-30T01:23:37.814Z,1002.81
2023-01-30T01:24:37.802Z,1002.82
2023-01-30T01:25:37.792Z,1002.77
2023-01-30T01:26:37.786Z,1002.81
2023-01-30T01:27:37.771Z,1002.6
2023-01-30T01:28:37.762Z,1002.62
2023-01-30T01:29:37.761Z,1002.57
2023-01-30T01:30:37.740Z,1002.59
2023-01-30T01:31:37.735Z,1002.58
2023-01-30T01:32:37.722Z,1002.61
2023-01-30T01:33:37.704Z,1002.67
2023-01-30T01:34:37.692Z,1002.61
2023-01-30T01:35:37.705Z,1002.6
2023-01-30T01:36:37.672Z,1002.48
2023-01-30T01:37:37.663Z,1002.42
2023-01-30T01:38:37.656Z,1002.38
2023-01-30T01:39:37.644Z,1002.47
2023-01-30T01:40:37.660Z,1002.4
2023-01-30T01:41:37.639Z,1002.37
2023-01-30T01:42:37.610Z,1002.27
2023-01-30T01:43:37.610Z,1002.36
2023-01-30T01:44:37.589Z,1002.22
2023-01-30T01:45:37.575Z,1002.16
2023-01-30T01:46:37.577Z,1002.15
2023-01-30T01:47:37.564Z,1002.14
2023-01-30T01:48:37.551Z,1002
2023-01-30T01:49:37.540Z,1001.89
2023-01-30T01:50:37.534Z,1002.07
2023-01-30T01:51:37.560Z,1001.93
2023-01-30T01:52:37.528Z,1001.91
2023-01-30T01:53:37.502Z,1001.86
2023-01-30T01:54:37.521Z,1001.92
2023-01-30T01:55:37.480Z,1001.91
2023-01-30T01:56:37.495Z,1001.82
2023-01-30T01:57:37.453Z,1001.73
2023-01-30T01:58:37.439Z,1001.69
2023-01-30T01:59:37.430Z,1001.7
2023-01-30T02:00:37.434Z,1001.74
2023-01-30T02:01:37.411Z,1001.76
2023-01-30T02:02:37.407Z,1001.75
2023-01-30T02:03:37.410Z,1001.75
2023-01-30T02:04:37.483Z,1001.81
2023-01-30T02:05:37.381Z,1001.69
2023-01-30T02:06:37.377Z,1001.84
2023-01-30T02:07:37.345Z,1001.75
2023-01-30T02:08:37.340Z,1001.79
2023-01-30T02:09:37.331Z,1001.7
2023-01-30T02:10:37.313Z,1001.68
2023-01-30T02:11:37.324Z,1001.64
2023-01-30T02:12:37.296Z,1001.68
2023-01-30T02:13:37.304Z,1001.63
2023-01-30T02:14:37.279Z,1001.65
2023-01-30T02:15:37.261Z,1001.6
2023-01-30T02:16:37.265Z,1001.6
2023-01-30T02:17:37.250Z,1001.57
2023-01-30T02:18:37.239Z,1001.55
2023-01-30T02:19:37.218Z,1001.59
2023-01-30T02:20:37.209Z,1001.53
2023-01-30T02:21:37.200Z,1001.53
2023-01-30T02:22:37.189Z,1001.49
2023-01-30T02:23:37.180Z,1001.48
2023-01-30T02:24:37.181Z,1001.42
2023-01-30T02:25:37.165Z,1001.45
2023-01-30T02:26:37.177Z,1001.35
2023-01-30T02:27:37.136Z,1001.4
2023-01-30T02:28:37.124Z,1001.34
2023-01-30T02:29:37.115Z,1001.33
2023-01-30T02:30:37.106Z,1001.25
2023-01-30T02:31:37.094Z,1001.2
2023-01-30T02:32:37.084Z,1001.34
2023-01-30T02:33:37.097Z,1001.3
2023-01-30T02:34:37.062Z,1001.3
2023-01-30T02:35:37.054Z,1001.25
2023-01-30T02:36:37.044Z,1001.17
2023-01-30T02:37:37.031Z,1001.2
2023-01-30T02:38:37.021Z,1001.2
2023-01-30T02:39:37.009Z,1001.07
2023-01-30T02:40:37.001Z,1001.04
2023-01-30T02:41:36.990Z,1000.93
2023-01-30T02:42:36.989Z,1000.9
2023-01-30T02:43:36.973Z,1000.89
2023-01-30T02:44:36.978Z,1000.91
2023-01-30T02:45:36.951Z,1000.84
2023-01-30T02:46:36.937Z,1000.95
2023-01-30T02:47:36.930Z,1000.77
2023-01-30T02:48:36.924Z,1000.89
2023-01-30T02:49:36.912Z,1000.74
2023-01-30T02:50:36.903Z,1000.67
2023-01-30T02:51:36.913Z,1000.74
2023-01-30T02:52:36.885Z,1000.79
2023-01-30T02:53:36.874Z,1000.71
2023-01-30T02:54:36.857Z,1000.69
2023-01-30T02:55:36.856Z,1000.73
2023-01-30T02:56:36.833Z,1000.69
2023-01-30T02:57:36.826Z,1000.59
2023-01-30T02:58:36.818Z,1000.67
2023-01-30T02:59:36.809Z,1000.68
2023-01-30T03:00:36.798Z,1000.61
2023-01-30T03:01:36.783Z,1000.48
2023-01-30T03:02:36.773Z,1000.6
2023-01-30T03:03:36.761Z,1000.5
2023-01-30T03:04:36.763Z,1000.46
2023-01-30T03:05:36.748Z,1000.54
2023-01-30T03:06:36.728Z,1000.51
2023-01-30T03:07:36.730Z,1000.49
2023-01-30T03:08:36.744Z,1000.53
2023-01-30T03:09:36.708Z,1000.5
2023-01-30T03:10:36.700Z,1000.43
2023-01-30T03:11:36.699Z,1000.34
2023-01-30T03:12:36.671Z,1000.44
2023-01-30T03:13:36.665Z,1000.35
2023-01-30T03:14:36.662Z,1000.32
2023-01-30T03:15:36.640Z,1000.12
2023-01-30T03:16:36.638Z,1000.39
2023-01-30T03:17:36.616Z,1000.25
2023-01-30T03:18:36.616Z,1000.24
2023-01-30T03:19:36.602Z,1000.22
2023-01-30T03:20:36.588Z,1000.21
2023-01-30T03:21:36.584Z,1000.33
2023-01-30T03:22:36.573Z,1000.3
2023-01-30T03:23:36.555Z,1000.34
2023-01-30T03:24:36.540Z,1000.23
2023-01-30T03:25:36.539Z,1000.25
2023-01-30T03:26:36.555Z,1000.29
2023-01-30T03:27:36.525Z,1000.35
2023-01-30T03:28:36.502Z,1000.27
2023-01-30T03:29:36.492Z,1000.26
2023-01-30T03:30:36.483Z,1000.22
2023-01-30T03:31:36.474Z,1000.21
2023-01-30T03:32:36.463Z,1000.2
2023-01-30T03:33:36.460Z,1000.05
2023-01-30T03:34:36.437Z,1000.18
2023-01-30T03:35:36.434Z,1000.15
2023-01-30T03:36:36.423Z,1000.19
2023-01-30T03:37:36.410Z,1000.08
2023-01-30T03:38:36.403Z,1000.16
2023-01-30T03:39:36.405Z,1000.14
2023-01-30T03:40:36.383Z,1000.12
2023-01-30T03:41:36.369Z,1000.03
2023-01-30T03:42:36.361Z,999.98
2023-01-30T03:43:36.368Z,999.94
2023-01-30T03:44:36.336Z,1000.14
2023-01-30T03:45:36.334Z,1000
2023-01-30T03:46:36.317Z,1000.06
2023-01-30T03:47:36.309Z,999.96
2023-01-30T03:48:36.292Z,1000.04
2023-01-30T03:49:36.291Z,999.94
2023-01-30T03:50:36.275Z,999.93
2023-01-30T03:51:36.274Z,999.88
2023-01-30T03:52:36.252Z,999.94
2023-01-30T03:53:36.247Z,999.96
2023-01-30T03:54:36.234Z,999.84
2023-01-30T03:55:36.225Z,999.78
2023-01-30T03:56:36.220Z,999.81
2023-01-30T03:57:36.206Z,999.8
2023-01-30T03:58:36.194Z,999.8
2023-01-30T03:59:36.201Z,999.69
2023-01-30T04:00:36.182Z,999.82
2023-01-30T04:01:36.185Z,999.72
2023-01-30T04:02:36.157Z,999.81
2023-01-30T04:03:36.138Z,999.73
2023-01-30T04:04:36.132Z,999.67
2023-01-30T04:05:36.140Z,999.76
2023-01-30T04:06:36.112Z,999.75
2023-01-30T04:07:36.144Z,999.72
2023-01-30T04:08:36.107Z,999.68
2023-01-30T04:09:36.159Z,999.63
2023-01-30T04:10:36.081Z,999.64
2023-01-30T04:11:36.151Z,999.56
2023-01-30T04:12:36.068Z,999.66
2023-01-30T04:13:36.066Z,999.63
2023-01-30T04:14:36.044Z,999.65
2023-01-30T04:15:36.063Z,999.58
2023-01-30T04:16:36.010Z,999.62
2023-01-30T04:17:36.000Z,999.58
2023-01-30T04:18:35.994Z,999.55
2023-01-30T04:19:35.998Z,999.5
2023-01-30T04:20:36.974Z,999.53
2023-01-30T04:21:35.949Z,999.54
2023-01-30T04:22:35.952Z,999.44
2023-01-30T04:23:35.959Z,999.55
2023-01-30T04:24:35.923Z,999.52
2023-01-30T04:25:35.915Z,999.52
2023-01-30T04:26:35.901Z,999.53
2023-01-30T04:27:35.888Z,999.5
2023-01-30T04:28:35.883Z,999.52
2023-01-30T04:29:35.887Z,999.45
2023-01-30T04:30:35.858Z,999.53
2023-01-30T04:31:35.846Z,999.4
2023-01-30T04:32:35.847Z,999.57
2023-01-30T04:33:35.831Z,999.57
2023-01-30T04:34:35.818Z,999.62
2023-01-30T04:35:35.826Z,999.46
2023-01-30T04:36:35.792Z,999.52
2023-01-30T04:37:35.798Z,999.54
2023-01-30T04:38:35.798Z,999.52
2023-01-30T04:39:35.795Z,999.41
2023-01-30T04:40:35.784Z,999.45
2023-01-30T04:41:35.740Z,999.42
2023-01-30T04:42:35.734Z,999.37
2023-01-30T04:43:35.721Z,999.46
2023-01-30T04:44:35.718Z,999.52
2023-01-30T04:45:35.715Z,999.44
2023-01-30T04:46:35.687Z,999.49
2023-01-30T04:47:35.686Z,999.44
2023-01-30T04:48:35.673Z,999.44
2023-01-30T04:49:35.687Z,999.27
2023-01-30T04:50:35.643Z,999.32
2023-01-30T04:51:35.639Z,999.37
2023-01-30T04:52:35.656Z,999.34
2023-01-30T04:53:35.628Z,999.26
2023-01-30T04:54:35.596Z,999.25
2023-01-30T04:55:35.592Z,999.33
2023-01-30T04:56:35.582Z,999.32
2023-01-30T04:57:35.588Z,999.29
2023-01-30T04:58:35.585Z,999.29
2023-01-30T04:59:35.551Z,999.24
2023-01-30T05:00:35.538Z,999.18
2023-01-30T05:01:35.527Z,999.3
2023-01-30T05:02:35.526Z,999.25
2023-01-30T05:03:35.519Z,999.21
2023-01-30T05:04:35.507Z,999.27
2023-01-30T05:05:35.493Z,999.23
2023-01-30T05:06:35.482Z,999.29
2023-01-30T05:07:35.467Z,999.31
2023-01-30T05:08:35.460Z,999.23
2023-01-30T05:09:35.446Z,999.26
2023-01-30T05:10:35.450Z,999.08
2023-01-30T05:11:35.425Z,999.04
2023-01-30T05:12:35.413Z,999.09
2023-01-30T05:13:35.406Z,999.11
2023-01-30T05:14:35.391Z,999.05
2023-01-30T05:15:35.379Z,998.99
2023-01-30T05:16:44.031Z,999.07
2023-01-30T05:17:35.357Z,998.97
2023-01-30T05:18:35.356Z,999.06
2023-01-30T05:19:35.362Z,999.13
2023-01-30T05:20:35.362Z,999.04
2023-01-30T05:21:35.323Z,999.12
2023-01-30T05:22:35.303Z,999.08
2023-01-30T05:23:35.302Z,999.06
2023-01-30T05:24:35.296Z,999.02
2023-01-30T05:25:35.315Z,998.97
2023-01-30T05:26:35.306Z,999
2023-01-30T05:27:35.253Z,998.94
2023-01-30T05:28:35.252Z,999.05
2023-01-30T05:29:35.233Z,999.04
2023-01-30T05:30:35.240Z,999.09
2023-01-30T05:31:35.215Z,998.99
2023-01-30T05:32:35.197Z,999.04
2023-01-30T05:33:35.219Z,999.04
2023-01-30T05:34:35.181Z,999.08
2023-01-30T05:35:35.173Z,999.01
2023-01-30T05:36:35.163Z,999
2023-01-30T05:37:35.149Z,999.08
2023-01-30T05:38:35.136Z,998.99
2023-01-30T05:39:35.135Z,998.93
2023-01-30T05:40:35.128Z,999
2023-01-30T05:41:35.121Z,999.02
2023-01-30T05:42:35.099Z,998.98
2023-01-30T05:43:35.082Z,998.94
2023-01-30T05:44:35.073Z,999.03
2023-01-30T05:45:35.076Z,998.99
2023-01-30T05:46:35.057Z,999.07
2023-01-30T05:47:35.051Z,998.98
2023-01-30T05:48:35.045Z,999.07
2023-01-30T05:49:35.015Z,998.97
2023-01-30T05:50:35.006Z,999.05
2023-01-30T05:51:35.026Z,999.13
2023-01-30T05:52:35.001Z,999.09
2023-01-30T05:53:34.971Z,999.05
2023-01-30T05:54:34.963Z,999.08
2023-01-30T05:55:34.961Z,999.17
2023-01-30T05:56:34.952Z,999.15
2023-01-30T05:57:34.934Z,999.15
2023-01-30T05:58:34.920Z,999.18
2023-01-30T05:59:34.918Z,999.14
2023-01-30T06:00:34.898Z,999.22
2023-01-30T06:01:34.899Z,999.21
2023-01-30T06:02:34.885Z,999.18
2023-01-30T06:03:34.873Z,999.22
2023-01-30T06:04:34.853Z,999.32
2023-01-30T06:05:34.860Z,999.22
2023-01-30T06:06:34.838Z,999.22
2023-01-30T06:07:34.826Z,999.2
2023-01-30T06:08:34.822Z,999.23
2023-01-30T06:09:34.811Z,999.27
2023-01-30T06:10:34.792Z,999.29
2023-01-30T06:11:34.775Z,999.27
2023-01-30T06:12:34.777Z,999.37
2023-01-30T06:13:34.784Z,999.33
2023-01-30T06:14:34.750Z,999.37
2023-01-30T06:15:34.738Z,999.43
2023-01-30T06:16:34.737Z,999.48
2023-01-30T06:17:34.721Z,999.37
2023-01-30T06:18:34.709Z,999.38
2023-01-30T06:19:34.703Z,999.37
2023-01-30T06:20:34.689Z,999.42
2023-01-30T06:21:34.674Z,999.42
2023-01-30T06:22:34.681Z,999.43
2023-01-30T06:23:34.662Z,999.46
2023-01-30T06:24:34.660Z,999.47
2023-01-30T06:25:34.624Z,999.39
2023-01-30T06:26:34.624Z,999.31
2023-01-30T06:27:34.621Z,999.42
2023-01-30T06:28:34.596Z,999.35
2023-01-30T06:29:34.622Z,999.22
2023-01-30T06:30:34.580Z,999.25
2023-01-30T06:31:34.575Z,999.26
2023-01-30T06:32:34.554Z,999.28
2023-01-30T06:33:34.550Z,999.33
2023-01-30T06:34:34.533Z,999.38
2023-01-30T06:35:34.538Z,999.42
2023-01-30T06:36:34.522Z,999.48
2023-01-30T06:37:34.492Z,999.53
2023-01-30T06:38:34.490Z,999.39
2023-01-30T06:39:34.531Z,999.46
2023-01-30T06:40:34.461Z,999.43
2023-01-30T06:41:34.454Z,999.35
2023-01-30T06:42:34.443Z,999.43
2023-01-30T06:43:34.425Z,999.37
2023-01-30T06:44:34.428Z,999.29
2023-01-30T06:45:34.412Z,999.3
2023-01-30T06:46:34.405Z,999.29
2023-01-30T06:47:34.390Z,999.22
2023-01-30T06:48:34.389Z,999.28
2023-01-30T06:49:34.368Z,999.19
2023-01-30T06:50:35.122Z,999.18
2023-01-30T06:51:34.348Z,999.23
2023-01-30T06:52:34.367Z,999.22
2023-01-30T06:53:34.386Z,999.2
2023-01-30T06:54:34.385Z,999.14
2023-01-30T06:55:34.337Z,999.13
2023-01-30T06:56:34.322Z,999.18
2023-01-30T06:57:34.294Z,999.26
2023-01-30T06:58:34.270Z,999.3
2023-01-30T06:59:34.259Z,999.28
2023-01-30T07:00:34.245Z,999.32
2023-01-30T07:01:34.236Z,999.27
2023-01-30T07:02:34.219Z,999.26
2023-01-30T07:03:34.222Z,999.28
2023-01-30T07:04:34.207Z,999.27
2023-01-30T07:05:34.190Z,999.24
2023-01-30T07:06:34.185Z,999.35
2023-01-30T07:07:34.164Z,999.3
2023-01-30T07:08:34.168Z,999.28
2023-01-30T07:09:34.159Z,999.38
2023-01-30T07:10:34.140Z,999.31
2023-01-30T07:11:34.260Z,999.34
2023-01-30T07:12:34.114Z,999.31
2023-01-30T07:13:34.102Z,999.33
2023-01-30T07:14:34.091Z,999.35
2023-01-30T07:15:34.087Z,999.33
2023-01-30T07:16:34.095Z,999.32
2023-01-30T07:17:34.108Z,999.33
2023-01-30T07:18:34.058Z,999.26
2023-01-30T07:19:34.037Z,999.31
2023-01-30T07:20:34.032Z,999.37
2023-01-30T07:21:34.016Z,999.33
2023-01-30T07:22:34.015Z,999.38
2023-01-30T07:23:34.000Z,999.39
2023-01-30T07:24:34.005Z,999.35
2023-01-30T07:25:33.997Z,999.32
2023-01-30T07:26:33.969Z,999.35
2023-01-30T07:27:33.956Z,999.47
2023-01-30T07:28:33.941Z,999.37
2023-01-30T07:29:33.933Z,999.4
2023-01-30T07:30:33.967Z,999.41
2023-01-30T07:31:33.954Z,999.41
2023-01-30T07:32:33.918Z,999.45
2023-01-30T07:33:33.912Z,999.36
2023-01-30T07:34:33.882Z,999.39
2023-01-30T07:35:33.891Z,999.34
2023-01-30T07:36:33.853Z,999.42
2023-01-30T07:37:33.839Z,999.4
2023-01-30T07:38:33.839Z,999.38
2023-01-30T07:39:33.824Z,999.43
2023-01-30T07:40:33.808Z,999.51
2023-01-30T07:41:33.811Z,999.45
2023-01-30T07:42:33.796Z,999.38
2023-01-30T07:43:33.783Z,999.35
2023-01-30T07:44:33.829Z,999.44
2023-01-30T07:45:33.759Z,999.48
2023-01-30T07:46:33.756Z,999.45
2023-01-30T07:47:33.739Z,999.43
2023-01-30T07:48:33.730Z,999.51
2023-01-30T07:49:33.737Z,999.45
2023-01-30T07:50:33.711Z,999.4
2023-01-30T07:51:33.693Z,999.43
2023-01-30T07:52:33.693Z,999.44
2023-01-30T07:53:33.679Z,999.4
2023-01-30T07:54:33.658Z,999.38
2023-01-30T07:55:33.655Z,999.47
2023-01-30T07:56:33.637Z,999.46
2023-01-30T07:57:33.632Z,999.5
2023-01-30T07:58:33.622Z,999.44
2023-01-30T07:59:33.600Z,999.46
2023-01-30T08:00:33.616Z,999.41
2023-01-30T08:01:33.627Z,999.5
2023-01-30T08:02:33.585Z,999.51
2023-01-30T08:03:33.601Z,999.51
2023-01-30T08:04:33.610Z,999.53
2023-01-30T08:05:33.576Z,999.53
2023-01-30T08:06:33.629Z,999.51
2023-01-30T08:07:33.546Z,999.58
2023-01-30T08:08:33.514Z,999.59
2023-01-30T08:09:33.515Z,999.65
2023-01-30T08:10:33.484Z,999.63
2023-01-30T08:11:33.483Z,999.64
2023-01-30T08:12:33.582Z,999.55
2023-01-30T08:13:33.452Z,999.52
2023-01-30T08:14:33.451Z,999.58
2023-01-30T08:15:33.431Z,999.54
2023-01-30T08:16:33.422Z,999.55
2023-01-30T08:17:33.418Z,999.53
2023-01-30T08:18:33.409Z,999.6
2023-01-30T08:19:33.409Z,999.62
2023-01-30T08:20:33.376Z,999.58
2023-01-30T08:21:33.377Z,999.67
2023-01-30T08:22:33.364Z,999.62
2023-01-30T08:23:33.376Z,999.59
2023-01-30T08:24:33.349Z,999.62
2023-01-30T08:25:33.327Z,999.62
2023-01-30T08:26:33.318Z,999.63
2023-01-30T08:27:33.309Z,999.58
2023-01-30T08:28:33.319Z,999.64
2023-01-30T08:29:33.289Z,999.61
2023-01-30T08:30:34.061Z,999.59
2023-01-30T08:31:33.274Z,999.62
2023-01-30T08:32:33.248Z,999.64
2023-01-30T08:33:33.249Z,999.61
2023-01-30T08:34:33.232Z,999.7
2023-01-30T08:35:33.237Z,999.65
2023-01-30T08:36:33.268Z,999.65
2023-01-30T08:37:33.270Z,999.6
2023-01-30T08:38:33.268Z,999.74
2023-01-30T08:39:33.203Z,999.67
2023-01-30T08:40:33.173Z,999.6
2023-01-30T08:41:33.259Z,999.69
2023-01-30T08:42:34.177Z,999.65
2023-01-30T08:43:33.183Z,999.68
2023-01-30T08:44:33.156Z,999.7
2023-01-30T08:45:33.141Z,999.72
2023-01-30T08:46:33.179Z,999.77
2023-01-30T08:47:33.103Z,999.72
2023-01-30T08:48:33.103Z,999.66
2023-01-30T08:49:33.099Z,999.69
2023-01-30T08:50:33.080Z,999.69
2023-01-30T08:51:33.069Z,999.65
2023-01-30T08:52:33.159Z,999.65
2023-01-30T08:53:33.055Z,999.71
2023-01-30T08:54:33.023Z,999.76
2023-01-30T08:55:33.013Z,999.69
2023-01-30T08:56:32.998Z,999.67
2023-01-30T08:57:32.989Z,999.73
2023-01-30T08:58:32.994Z,999.67
2023-01-30T08:59:32.994Z,999.64
2023-01-30T09:00:33.179Z,999.66
2023-01-30T09:01:33.031Z,999.68
2023-01-30T09:02:34.087Z,999.74
2023-01-30T09:03:32.957Z,999.76
2023-01-30T09:04:32.945Z,999.63
2023-01-30T09:05:32.909Z,999.65
2023-01-30T09:06:32.992Z,999.76
2023-01-30T09:07:33.100Z,999.69
2023-01-30T09:08:32.958Z,999.71
2023-01-30T09:09:33.910Z,999.73
2023-01-30T09:10:32.869Z,999.71
2023-01-30T09:11:33.867Z,999.74
2023-01-30T09:12:32.923Z,999.62
2023-01-30T09:13:33.830Z,999.73
2023-01-30T09:14:32.826Z,999.68
2023-01-30T09:15:32.830Z,999.83
2023-01-30T09:16:32.806Z,999.65
2023-01-30T09:17:32.828Z,999.71
2023-01-30T09:18:32.805Z,999.65
2023-01-30T09:19:33.127Z,999.72
2023-01-30T09:20:32.796Z,999.63
2023-01-30T09:21:32.754Z,999.65
2023-01-30T09:22:32.723Z,999.82
2023-01-30T09:23:32.713Z,999.73
2023-01-30T09:24:32.711Z,999.81
2023-01-30T09:25:32.708Z,999.81
2023-01-30T09:26:32.686Z,999.86
2023-01-30T09:27:32.757Z,999.78
2023-01-30T09:28:32.656Z,999.77
2023-01-30T09:29:32.651Z,999.79
2023-01-30T09:30:32.641Z,999.87
2023-01-30T09:31:32.623Z,999.85
2023-01-30T09:32:32.617Z,999.85
2023-01-30T09:33:32.603Z,999.89
2023-01-30T09:34:32.618Z,1000.03
2023-01-30T09:35:32.605Z,1000.16
2023-01-30T09:36:32.590Z,999.88
2023-01-30T09:37:32.562Z,1000
2023-01-30T09:38:32.552Z,999.81
2023-01-30T09:39:32.539Z,999.86
2023-01-30T09:40:32.539Z,999.88
2023-01-30T09:41:32.517Z,999.89
2023-01-30T09:42:32.509Z,999.99
2023-01-30T09:43:32.508Z,999.91
2023-01-30T09:44:32.532Z,1000.02
2023-01-30T09:45:32.493Z,999.97
2023-01-30T09:46:32.475Z,1000.01
2023-01-30T09:47:32.461Z,999.96
2023-01-30T09:48:32.450Z,999.98
2023-01-30T09:49:32.434Z,999.94
2023-01-30T09:50:32.436Z,999.92
2023-01-30T09:51:32.414Z,999.91
2023-01-30T09:52:32.441Z,999.95
2023-01-30T09:53:32.395Z,1000.03
2023-01-30T09:54:32.393Z,999.91
2023-01-30T09:55:32.374Z,999.94
2023-01-30T09:56:32.365Z,999.89
2023-01-30T09:57:32.363Z,999.8
2023-01-30T09:58:32.352Z,999.73
2023-01-30T09:59:32.338Z,999.78
2023-01-30T10:00:32.319Z,999.63
2023-01-30T10:01:32.311Z,999.85
2023-01-30T10:02:32.305Z,999.87
2023-01-30T10:03:32.289Z,999.86
2023-01-30T10:04:32.285Z,999.87
2023-01-30T10:05:32.323Z,999.91
2023-01-30T10:06:32.267Z,999.93
2023-01-30T10:07:32.247Z,999.88
2023-01-30T10:08:32.262Z,999.97
2023-01-30T10:09:32.268Z,999.92
2023-01-30T10:10:32.238Z,999.96
2023-01-30T10:11:32.212Z,1000.04
2023-01-30T10:12:32.194Z,999.97
2023-01-30T10:13:32.194Z,1000.04
2023-01-30T10:14:32.191Z,1000.05
2023-01-30T10:15:32.162Z,999.94
2023-01-30T10:16:32.163Z,1000.01
2023-01-30T10:17:32.142Z,1000.05
2023-01-30T10:18:32.158Z,1000.03
2023-01-30T10:19:32.172Z,999.99
2023-01-30T10:20:32.112Z,999.97
2023-01-30T10:21:32.136Z,999.99
2023-01-30T10:22:32.094Z,999.96
2023-01-30T10:23:32.080Z,1000.08
2023-01-30T10:24:32.079Z,1000.03
2023-01-30T10:25:32.076Z,1000.08
2023-01-30T10:26:32.059Z,999.94
2023-01-30T10:27:32.044Z,999.81
2023-01-30T10:28:32.133Z,999.95
2023-01-30T10:29:32.027Z,999.89
2023-01-30T10:30:32.014Z,999.87
2023-01-30T10:31:32.004Z,999.92
2023-01-30T10:32:31.994Z,999.93
2023-01-30T10:33:31.993Z,999.97
2023-01-30T10:34:31.966Z,999.86
2023-01-30T10:35:31.953Z,999.94
2023-01-30T10:36:31.943Z,999.97
2023-01-30T10:37:31.953Z,999.99
2023-01-30T10:38:31.927Z,1000.01
2023-01-30T10:39:31.915Z,1000.01
2023-01-30T10:40:31.900Z,999.92
2023-01-30T10:41:31.888Z,999.98
2023-01-30T10:42:31.877Z,999.94
2023-01-30T10:43:31.882Z,999.94
2023-01-30T10:44:31.856Z,999.97
2023-01-30T10:45:31.854Z,999.92
2023-01-30T10:46:31.845Z,999.92
2023-01-30T10:47:31.832Z,999.92
2023-01-30T10:48:31.819Z,999.96
2023-01-30T10:49:31.814Z,1000.08
2023-01-30T10:50:31.835Z,999.94
2023-01-30T10:51:31.787Z,1000.02
2023-01-30T10:52:31.772Z,1000
2023-01-30T10:53:31.799Z,1000.1
2023-01-30T10:54:31.755Z,1000.12
2023-01-30T10:55:31.743Z,1000.11
2023-01-30T10:56:31.739Z,1000.07
2023-01-30T10:57:31.720Z,999.96
2023-01-30T10:58:31.709Z,999.98
2023-01-30T10:59:31.704Z,1000.06
2023-01-30T11:00:31.692Z,999.98
2023-01-30T11:01:31.676Z,1000.01
2023-01-30T11:02:31.663Z,1000.02
2023-01-30T11:03:31.659Z,999.93
2023-01-30T11:04:31.654Z,999.87
2023-01-30T11:05:31.638Z,999.91
2023-01-30T11:06:31.624Z,999.97
2023-01-30T11:07:31.614Z,999.89
2023-01-30T11:08:31.603Z,999.88
2023-01-30T11:09:31.590Z,1000.07
2023-01-30T11:10:31.598Z,1000.08
2023-01-30T11:11:31.574Z,1000
2023-01-30T11:12:31.562Z,1000.02
2023-01-30T11:13:31.553Z,999.95
2023-01-30T11:14:31.540Z,999.94
2023-01-30T11:15:31.531Z,999.9
2023-01-30T11:16:31.520Z,999.98
2023-01-30T11:17:31.511Z,1000.05
2023-01-30T11:18:31.510Z,1000.01
2023-01-30T11:19:31.487Z,1000.01
2023-01-30T11:20:31.473Z,1000
2023-01-30T11:21:31.467Z,999.96
2023-01-30T11:22:31.453Z,999.9
2023-01-30T11:23:31.450Z,999.89
2023-01-30T11:24:31.463Z,999.96
2023-01-30T11:25:31.422Z,999.78
2023-01-30T11:26:31.485Z,999.78
2023-01-30T11:27:31.434Z,999.66
2023-01-30T11:28:31.395Z,999.65
2023-01-30T11:29:32.047Z,999.57
2023-01-30T11:30:31.379Z,999.68
2023-01-30T11:31:31.359Z,999.71
2023-01-30T11:32:31.349Z,999.73
2023-01-30T11:33:31.347Z,999.61
2023-01-30T11:34:31.333Z,999.65
2023-01-30T11:35:31.319Z,999.5
2023-01-30T11:36:31.304Z,999.59
2023-01-30T11:37:31.295Z,999.73
2023-01-30T11:38:31.281Z,999.66
2023-01-30T11:39:31.274Z,999.73
2023-01-30T11:40:31.292Z,999.68
2023-01-30T11:41:31.249Z,999.66
2023-01-30T11:42:31.260Z,999.59
2023-01-30T11:43:31.249Z,999.65
2023-01-30T11:44:31.238Z,999.62
2023-01-30T11:45:31.223Z,999.53
2023-01-30T11:46:31.206Z,999.54
2023-01-30T11:47:31.191Z,999.57
2023-01-30T11:48:31.182Z,999.48
2023-01-30T11:49:31.173Z,999.42
2023-01-30T11:50:31.167Z,999.42
2023-01-30T11:51:31.148Z,999.47
2023-01-30T11:52:31.169Z,999.38
2023-01-30T11:53:31.126Z,999.48
2023-01-30T11:54:31.119Z,999.45
2023-01-30T11:55:31.114Z,999.41
2023-01-30T11:56:31.101Z,999.34
2023-01-30T11:57:31.083Z,999.39
2023-01-30T11:58:31.074Z,999.39
2023-01-30T11:59:31.063Z,999.3
2023-01-30T12:00:31.060Z,999.34
2023-01-30T12:01:31.051Z,999.14
2023-01-30T12:02:31.074Z,999.22
2023-01-30T12:03:31.058Z,999.31
2023-01-30T12:04:31.007Z,999.22
2023-01-30T12:05:31.013Z,999.39
2023-01-30T12:06:30.985Z,999.2
2023-01-30T12:07:31.005Z,999.13
2023-01-30T12:08:30.979Z,999.25
2023-01-30T12:09:30.963Z,999.25
2023-01-30T12:10:31.184Z,999.19
2023-01-30T12:11:31.049Z,999.16
2023-01-30T12:12:30.920Z,999.03
2023-01-30T12:13:30.947Z,999.21
2023-01-30T12:14:30.910Z,999.29
2023-01-30T12:15:30.902Z,999.35
2023-01-30T12:16:30.890Z,999.24
2023-01-30T12:17:30.923Z,999.26
2023-01-30T12:18:30.859Z,999.31
2023-01-30T12:19:31.305Z,999.33
2023-01-30T12:20:30.860Z,999.36
2023-01-30T12:21:30.877Z,999.21
2023-01-30T12:22:30.836Z,999.36
2023-01-30T12:23:30.821Z,999.34